sensor_id;sensor_type;location;lat;lon;timestamp;temperature;humidity
26262;DHT22;13988;52.446;13.280;2023-07-28T00:01:15;16.70;99.90
26262;DHT22;13988;52.446;13.280;2023-07-28T00:03:41;16.70;99.90
26262;DHT22;13988;52.446;13.280;2023-07-28T00:06:06;16.70;99.90
26262;DHT22;13988;52.446;13.280;2023-07-28T00:08:32;16.70;99.90
26262;DHT22;13988;52.446;13.280;2023-07-28T00:10:57;16.70;99.90
26262;DHT22;13988;52.446;13.280;2023-07-28T00:13:23;16.70;99.90
26262;DHT22;13988;52.446;13.280;2023-07-28T00:15:49;16.70;99.90
26262;DHT22;13988;52.446;13.280;2023-07-28T00:18:14;16.80;99.90
26262;DHT22;13988;52.446;13.280;2023-07-28T00:20:40;16.70;99.90
26262;DHT22;13988;52.446;13.280;2023-07-28T00:23:06;16.70;99.90
26262;DHT22;13988;52.446;13.280;2023-07-28T00:25:31;16.80;99.90
26262;DHT22;13988;52.446;13.280;2023-07-28T00:27:58;16.80;99.90
26262;DHT22;13988;52.446;13.280;2023-07-28T00:30:23;16.80;99.90
26262;DHT22;13988;52.446;13.280;2023-07-28T00:32:49;16.80;99.90
26262;DHT22;13988;52.446;13.280;2023-07-28T00:35:15;16.80;99.90
26262;DHT22;13988;52.446;13.280;2023-07-28T00:37:40;16.80;99.90
26262;DHT22;13988;52.446;13.280;2023-07-28T00:40:06;16.80;99.90
26262;DHT22;13988;52.446;13.280;2023-07-28T00:42:32;16.90;99.90
26262;DHT22;13988;52.446;13.280;2023-07-28T00:44:58;16.80;99.90
26262;DHT22;13988;52.446;13.280;2023-07-28T00:47:24;16.80;99.90
26262;DHT22;13988;52.446;13.280;2023-07-28T00:49:50;16.90;99.90
26262;DHT22;13988;52.446;13.280;2023-07-28T00:52:15;16.90;99.90
26262;DHT22;13988;52.446;13.280;2023-07-28T00:54:41;16.90;99.90
26262;DHT22;13988;52.446;13.280;2023-07-28T00:57:06;16.90;99.90
26262;DHT22;13988;52.446;13.280;2023-07-28T00:59:32;16.90;99.90
26262;DHT22;13988;52.446;13.280;2023-07-28T01:01:58;17.00;99.90
26262;DHT22;13988;52.446;13.280;2023-07-28T01:04:24;17.00;99.90
26262;DHT22;13988;52.446;13.280;2023-07-28T01:07:08;16.90;99.90
26262;DHT22;13988;52.446;13.280;2023-07-28T01:09:46;17.00;99.90
26262;DHT22;13988;52.446;13.280;2023-07-28T01:12:12;16.90;99.90
26262;DHT22;13988;52.446;13.280;2023-07-28T01:14:38;16.90;99.90
26262;DHT22;13988;52.446;13.280;2023-07-28T01:17:03;17.00;99.90
26262;DHT22;13988;52.446;13.280;2023-07-28T01:19:29;17.00;99.90
26262;DHT22;13988;52.446;13.280;2023-07-28T01:25:06;17.00;99.90
26262;DHT22;13988;52.446;13.280;2023-07-28T01:27:33;17.00;99.90
26262;DHT22;13988;52.446;13.280;2023-07-28T01:29:59;17.00;99.90
26262;DHT22;13988;52.446;13.280;2023-07-28T01:32:25;17.00;99.90
26262;DHT22;13988;52.446;13.280;2023-07-28T01:34:50;17.00;99.90
26262;DHT22;13988;52.446;13.280;2023-07-28T01:37:16;17.00;99.90
26262;DHT22;13988;52.446;13.280;2023-07-28T01:39:41;17.00;99.90
26262;DHT22;13988;52.446;13.280;2023-07-28T01:42:07;17.00;99.90
26262;DHT22;13988;52.446;13.280;2023-07-28T01:44:33;17.00;99.90
26262;DHT22;13988;52.446;13.280;2023-07-28T01:46:58;17.00;99.90
26262;DHT22;13988;52.446;13.280;2023-07-28T01:49:24;17.00;99.90
26262;DHT22;13988;52.446;13.280;2023-07-28T01:51:49;17.00;99.90
26262;DHT22;13988;52.446;13.280;2023-07-28T01:54:15;17.00;99.90
26262;DHT22;13988;52.446;13.280;2023-07-28T01:56:41;17.00;99.90
26262;DHT22;13988;52.446;13.280;2023-07-28T01:59:06;17.00;99.90
26262;DHT22;13988;52.446;13.280;2023-07-28T02:01:32;17.10;99.90
26262;DHT22;13988;52.446;13.280;2023-07-28T02:03:58;17.10;99.90
26262;DHT22;13988;52.446;13.280;2023-07-28T02:06:23;17.10;99.90
26262;DHT22;13988;52.446;13.280;2023-07-28T02:08:49;17.10;99.90
26262;DHT22;13988;52.446;13.280;2023-07-28T02:11:15;17.10;99.90
26262;DHT22;13988;52.446;13.280;2023-07-28T02:13:40;17.10;99.90
26262;DHT22;13988;52.446;13.280;2023-07-28T02:16:06;17.10;99.90
26262;DHT22;13988;52.446;13.280;2023-07-28T02:18:32;17.10;99.90
26262;DHT22;13988;52.446;13.280;2023-07-28T02:20:57;17.20;99.90
26262;DHT22;13988;52.446;13.280;2023-07-28T02:23:23;17.10;99.90
26262;DHT22;13988;52.446;13.280;2023-07-28T02:25:49;17.20;99.90
26262;DHT22;13988;52.446;13.280;2023-07-28T02:28:14;17.20;99.90
26262;DHT22;13988;52.446;13.280;2023-07-28T02:30:40;17.20;99.90
26262;DHT22;13988;52.446;13.280;2023-07-28T02:33:05;17.20;99.90
26262;DHT22;13988;52.446;13.280;2023-07-28T02:35:31;17.20;99.90
26262;DHT22;13988;52.446;13.280;2023-07-28T02:37:57;17.20;99.90
26262;DHT22;13988;52.446;13.280;2023-07-28T02:40:23;17.20;99.90
26262;DHT22;13988;52.446;13.280;2023-07-28T02:42:49;17.20;99.90
26262;DHT22;13988;52.446;13.280;2023-07-28T02:45:15;17.20;99.90
26262;DHT22;13988;52.446;13.280;2023-07-28T02:47:40;17.20;99.90
26262;DHT22;13988;52.446;13.280;2023-07-28T02:50:06;17.20;99.90
26262;DHT22;13988;52.446;13.280;2023-07-28T02:52:32;17.20;99.90
26262;DHT22;13988;52.446;13.280;2023-07-28T02:54:57;17.20;99.90
26262;DHT22;13988;52.446;13.280;2023-07-28T02:57:23;17.20;99.90
26262;DHT22;13988;52.446;13.280;2023-07-28T02:59:48;17.20;99.90
26262;DHT22;13988;52.446;13.280;2023-07-28T03:02:14;17.20;99.90
26262;DHT22;13988;52.446;13.280;2023-07-28T03:04:40;17.20;99.90
26262;DHT22;13988;52.446;13.280;2023-07-28T03:07:05;17.20;99.90
26262;DHT22;13988;52.446;13.280;2023-07-28T03:09:31;17.20;99.90
26262;DHT22;13988;52.446;13.280;2023-07-28T03:11:56;17.20;99.90
26262;DHT22;13988;52.446;13.280;2023-07-28T03:14:22;17.20;99.90
26262;DHT22;13988;52.446;13.280;2023-07-28T03:16:48;17.20;99.90
26262;DHT22;13988;52.446;13.280;2023-07-28T03:19:13;17.20;99.90
26262;DHT22;13988;52.446;13.280;2023-07-28T03:21:39;17.20;99.90
26262;DHT22;13988;52.446;13.280;2023-07-28T03:24:05;17.20;99.90
26262;DHT22;13988;52.446;13.280;2023-07-28T03:26:30;17.20;99.90
26262;DHT22;13988;52.446;13.280;2023-07-28T03:28:56;17.20;99.90
26262;DHT22;13988;52.446;13.280;2023-07-28T03:31:22;17.30;99.90
26262;DHT22;13988;52.446;13.280;2023-07-28T03:33:47;17.20;99.90
26262;DHT22;13988;52.446;13.280;2023-07-28T03:36:13;17.30;99.90
26262;DHT22;13988;52.446;13.280;2023-07-28T03:38:39;17.20;99.90
26262;DHT22;13988;52.446;13.280;2023-07-28T03:41:04;17.20;99.90
26262;DHT22;13988;52.446;13.280;2023-07-28T03:43:32;17.20;99.90
26262;DHT22;13988;52.446;13.280;2023-07-28T03:45:58;17.20;99.90
26262;DHT22;13988;52.446;13.280;2023-07-28T03:48:23;17.20;99.90
26262;DHT22;13988;52.446;13.280;2023-07-28T03:50:49;17.20;99.90
26262;DHT22;13988;52.446;13.280;2023-07-28T03:53:14;17.20;99.90
26262;DHT22;13988;52.446;13.280;2023-07-28T03:55:40;17.30;99.90
26262;DHT22;13988;52.446;13.280;2023-07-28T03:58:06;17.30;99.90
26262;DHT22;13988;52.446;13.280;2023-07-28T04:00:31;17.30;99.90
26262;DHT22;13988;52.446;13.280;2023-07-28T04:02:57;17.30;99.90
26262;DHT22;13988;52.446;13.280;2023-07-28T04:05:22;17.30;99.90
26262;DHT22;13988;52.446;13.280;2023-07-28T04:07:48;17.30;99.90
26262;DHT22;13988;52.446;13.280;2023-07-28T04:10:14;17.30;99.90
26262;DHT22;13988;52.446;13.280;2023-07-28T04:12:39;17.30;99.90
26262;DHT22;13988;52.446;13.280;2023-07-28T04:15:05;17.30;99.90
26262;DHT22;13988;52.446;13.280;2023-07-28T04:17:31;17.30;99.90
26262;DHT22;13988;52.446;13.280;2023-07-28T04:19:56;17.40;99.90
26262;DHT22;13988;52.446;13.280;2023-07-28T04:22:22;17.40;99.90
26262;DHT22;13988;52.446;13.280;2023-07-28T04:24:48;17.40;99.90
26262;DHT22;13988;52.446;13.280;2023-07-28T04:27:14;17.40;99.90
26262;DHT22;13988;52.446;13.280;2023-07-28T04:29:39;17.40;99.90
26262;DHT22;13988;52.446;13.280;2023-07-28T04:32:05;17.40;99.90
26262;DHT22;13988;52.446;13.280;2023-07-28T04:34:35;17.40;99.90
26262;DHT22;13988;52.446;13.280;2023-07-28T04:37:00;17.40;99.90
26262;DHT22;13988;52.446;13.280;2023-07-28T04:39:26;17.40;99.90
26262;DHT22;13988;52.446;13.280;2023-07-28T04:41:52;17.40;99.90
26262;DHT22;13988;52.446;13.280;2023-07-28T04:44:18;17.40;99.90
26262;DHT22;13988;52.446;13.280;2023-07-28T04:46:44;17.40;99.90
26262;DHT22;13988;52.446;13.280;2023-07-28T04:49:13;17.40;99.90
26262;DHT22;13988;52.446;13.280;2023-07-28T04:51:38;17.40;99.90
26262;DHT22;13988;52.446;13.280;2023-07-28T04:54:04;17.40;99.90
26262;DHT22;13988;52.446;13.280;2023-07-28T04:56:30;17.50;99.90
26262;DHT22;13988;52.446;13.280;2023-07-28T04:58:55;17.50;99.90
26262;DHT22;13988;52.446;13.280;2023-07-28T05:01:21;17.50;99.90
26262;DHT22;13988;52.446;13.280;2023-07-28T05:03:46;17.50;99.90
26262;DHT22;13988;52.446;13.280;2023-07-28T05:06:13;17.50;99.90
26262;DHT22;13988;52.446;13.280;2023-07-28T05:08:38;17.50;99.90
26262;DHT22;13988;52.446;13.280;2023-07-28T05:11:04;17.60;99.90
26262;DHT22;13988;52.446;13.280;2023-07-28T05:13:29;17.60;99.90
26262;DHT22;13988;52.446;13.280;2023-07-28T05:15:55;17.60;99.90
26262;DHT22;13988;52.446;13.280;2023-07-28T05:18:20;17.70;99.90
26262;DHT22;13988;52.446;13.280;2023-07-28T05:20:46;17.80;99.90
26262;DHT22;13988;52.446;13.280;2023-07-28T05:23:12;17.70;99.90
26262;DHT22;13988;52.446;13.280;2023-07-28T05:25:37;17.70;99.90
26262;DHT22;13988;52.446;13.280;2023-07-28T05:28:03;17.70;99.90
26262;DHT22;13988;52.446;13.280;2023-07-28T05:30:28;17.70;99.90
26262;DHT22;13988;52.446;13.280;2023-07-28T05:32:54;17.70;99.90
26262;DHT22;13988;52.446;13.280;2023-07-28T05:35:20;17.70;99.90
26262;DHT22;13988;52.446;13.280;2023-07-28T05:37:46;17.80;99.90
26262;DHT22;13988;52.446;13.280;2023-07-28T05:40:12;17.80;99.90
26262;DHT22;13988;52.446;13.280;2023-07-28T05:42:38;17.80;99.90
26262;DHT22;13988;52.446;13.280;2023-07-28T05:45:04;17.70;99.90
26262;DHT22;13988;52.446;13.280;2023-07-28T05:47:30;17.70;99.90
26262;DHT22;13988;52.446;13.280;2023-07-28T05:49:56;17.80;99.90
26262;DHT22;13988;52.446;13.280;2023-07-28T05:52:21;17.80;99.90
26262;DHT22;13988;52.446;13.280;2023-07-28T05:54:48;17.80;99.90
26262;DHT22;13988;52.446;13.280;2023-07-28T05:57:13;17.80;99.90
26262;DHT22;13988;52.446;13.280;2023-07-28T05:59:39;17.80;99.90
26262;DHT22;13988;52.446;13.280;2023-07-28T06:02:05;17.80;99.90
26262;DHT22;13988;52.446;13.280;2023-07-28T06:04:31;17.80;99.90
26262;DHT22;13988;52.446;13.280;2023-07-28T06:06:56;17.80;99.90
26262;DHT22;13988;52.446;13.280;2023-07-28T06:09:22;17.90;99.90
26262;DHT22;13988;52.446;13.280;2023-07-28T06:11:48;17.90;99.90
26262;DHT22;13988;52.446;13.280;2023-07-28T06:14:13;17.90;99.90
26262;DHT22;13988;52.446;13.280;2023-07-28T06:16:39;17.90;99.90
26262;DHT22;13988;52.446;13.280;2023-07-28T06:19:05;17.90;99.90
26262;DHT22;13988;52.446;13.280;2023-07-28T06:21:30;18.00;99.90
26262;DHT22;13988;52.446;13.280;2023-07-28T06:23:56;18.00;99.90
26262;DHT22;13988;52.446;13.280;2023-07-28T06:26:22;18.00;99.90
26262;DHT22;13988;52.446;13.280;2023-07-28T06:28:47;18.10;99.90
26262;DHT22;13988;52.446;13.280;2023-07-28T06:31:13;18.10;99.90
26262;DHT22;13988;52.446;13.280;2023-07-28T06:33:38;18.10;99.90
26262;DHT22;13988;52.446;13.280;2023-07-28T06:36:04;18.10;99.90
26262;DHT22;13988;52.446;13.280;2023-07-28T06:38:30;18.10;99.90
26262;DHT22;13988;52.446;13.280;2023-07-28T06:40:56;18.10;99.90
26262;DHT22;13988;52.446;13.280;2023-07-28T06:43:21;18.10;99.90
26262;DHT22;13988;52.446;13.280;2023-07-28T06:45:50;18.10;99.90
26262;DHT22;13988;52.446;13.280;2023-07-28T06:48:16;18.20;99.90
26262;DHT22;13988;52.446;13.280;2023-07-28T06:50:42;18.20;99.90
26262;DHT22;13988;52.446;13.280;2023-07-28T06:53:08;18.20;99.90
26262;DHT22;13988;52.446;13.280;2023-07-28T06:55:33;18.30;99.90
26262;DHT22;13988;52.446;13.280;2023-07-28T06:57:59;18.30;99.90
26262;DHT22;13988;52.446;13.280;2023-07-28T07:00:25;18.30;99.90
26262;DHT22;13988;52.446;13.280;2023-07-28T07:02:51;18.30;99.90
26262;DHT22;13988;52.446;13.280;2023-07-28T07:05:16;18.40;99.90
26262;DHT22;13988;52.446;13.280;2023-07-28T07:07:42;18.50;99.90
26262;DHT22;13988;52.446;13.280;2023-07-28T07:10:08;18.70;99.90
26262;DHT22;13988;52.446;13.280;2023-07-28T07:12:35;18.80;99.90
26262;DHT22;13988;52.446;13.280;2023-07-28T07:15:01;18.80;99.90
26262;DHT22;13988;52.446;13.280;2023-07-28T07:17:26;18.70;99.90
26262;DHT22;13988;52.446;13.280;2023-07-28T07:19:52;18.70;99.90
26262;DHT22;13988;52.446;13.280;2023-07-28T07:22:18;18.70;99.90
26262;DHT22;13988;52.446;13.280;2023-07-28T07:24:43;18.90;99.90
26262;DHT22;13988;52.446;13.280;2023-07-28T07:27:09;19.30;99.90
26262;DHT22;13988;52.446;13.280;2023-07-28T07:29:39;19.40;99.90
26262;DHT22;13988;52.446;13.280;2023-07-28T07:32:06;19.40;99.90
26262;DHT22;13988;52.446;13.280;2023-07-28T07:34:32;19.30;99.90
26262;DHT22;13988;52.446;13.280;2023-07-28T07:36:58;19.40;99.90
26262;DHT22;13988;52.446;13.280;2023-07-28T07:39:23;19.50;99.90
26262;DHT22;13988;52.446;13.280;2023-07-28T07:41:49;19.60;99.90
26262;DHT22;13988;52.446;13.280;2023-07-28T07:44:15;19.80;99.90
26262;DHT22;13988;52.446;13.280;2023-07-28T07:46:40;20.00;99.90
26262;DHT22;13988;52.446;13.280;2023-07-28T07:49:06;20.00;99.90
26262;DHT22;13988;52.446;13.280;2023-07-28T07:51:31;20.10;99.90
26262;DHT22;13988;52.446;13.280;2023-07-28T07:53:59;21.00;99.90
26262;DHT22;13988;52.446;13.280;2023-07-28T07:56:26;21.10;99.90
26262;DHT22;13988;52.446;13.280;2023-07-28T07:58:52;21.20;99.90
26262;DHT22;13988;52.446;13.280;2023-07-28T08:01:18;20.70;99.90
26262;DHT22;13988;52.446;13.280;2023-07-28T08:03:44;20.90;99.90
26262;DHT22;13988;52.446;13.280;2023-07-28T08:06:09;21.00;99.90
26262;DHT22;13988;52.446;13.280;2023-07-28T08:08:37;20.90;99.90
26262;DHT22;13988;52.446;13.280;2023-07-28T08:11:02;21.50;99.90
26262;DHT22;13988;52.446;13.280;2023-07-28T08:13:28;21.60;99.90
26262;DHT22;13988;52.446;13.280;2023-07-28T08:15:54;21.30;99.90
26262;DHT22;13988;52.446;13.280;2023-07-28T08:18:19;21.30;99.90
26262;DHT22;13988;52.446;13.280;2023-07-28T08:20:45;21.30;99.90
26262;DHT22;13988;52.446;13.280;2023-07-28T08:23:11;21.00;99.90
26262;DHT22;13988;52.446;13.280;2023-07-28T08:25:36;21.10;99.90
26262;DHT22;13988;52.446;13.280;2023-07-28T08:28:02;20.90;99.90
26262;DHT22;13988;52.446;13.280;2023-07-28T08:30:28;20.70;99.90
26262;DHT22;13988;52.446;13.280;2023-07-28T08:32:54;20.20;99.90
26262;DHT22;13988;52.446;13.280;2023-07-28T08:35:19;19.80;99.90
26262;DHT22;13988;52.446;13.280;2023-07-28T08:37:45;19.70;99.90
26262;DHT22;13988;52.446;13.280;2023-07-28T08:40:11;19.50;99.90
26262;DHT22;13988;52.446;13.280;2023-07-28T08:42:39;19.60;99.90
26262;DHT22;13988;52.446;13.280;2023-07-28T08:45:05;19.60;99.90
26262;DHT22;13988;52.446;13.280;2023-07-28T08:47:33;19.50;99.90
26262;DHT22;13988;52.446;13.280;2023-07-28T08:49:58;19.80;99.90
26262;DHT22;13988;52.446;13.280;2023-07-28T08:52:24;20.10;99.90
26262;DHT22;13988;52.446;13.280;2023-07-28T08:54:50;20.30;99.90
26262;DHT22;13988;52.446;13.280;2023-07-28T08:57:16;20.40;99.90
26262;DHT22;13988;52.446;13.280;2023-07-28T08:59:42;20.40;99.90
26262;DHT22;13988;52.446;13.280;2023-07-28T09:02:14;20.60;99.90
26262;DHT22;13988;52.446;13.280;2023-07-28T09:04:42;20.80;99.90
26262;DHT22;13988;52.446;13.280;2023-07-28T09:07:08;20.80;99.90
26262;DHT22;13988;52.446;13.280;2023-07-28T09:09:34;21.10;99.90
26262;DHT22;13988;52.446;13.280;2023-07-28T09:12:00;21.30;99.90
26262;DHT22;13988;52.446;13.280;2023-07-28T09:14:26;20.80;99.90
26262;DHT22;13988;52.446;13.280;2023-07-28T09:16:52;20.50;99.90
26262;DHT22;13988;52.446;13.280;2023-07-28T09:19:20;20.20;99.90
26262;DHT22;13988;52.446;13.280;2023-07-28T09:21:57;20.10;99.90
26262;DHT22;13988;52.446;13.280;2023-07-28T09:24:33;19.80;99.90
26262;DHT22;13988;52.446;13.280;2023-07-28T09:27:00;19.70;99.90
26262;DHT22;13988;52.446;13.280;2023-07-28T09:29:26;19.70;99.90
26262;DHT22;13988;52.446;13.280;2023-07-28T09:32:05;19.70;99.90
26262;DHT22;13988;52.446;13.280;2023-07-28T09:34:31;20.10;99.90
26262;DHT22;13988;52.446;13.280;2023-07-28T09:36:59;20.10;99.90
26262;DHT22;13988;52.446;13.280;2023-07-28T09:39:25;20.00;99.90
26262;DHT22;13988;52.446;13.280;2023-07-28T09:41:51;20.00;99.90
26262;DHT22;13988;52.446;13.280;2023-07-28T09:44:17;20.20;99.90
26262;DHT22;13988;52.446;13.280;2023-07-28T09:46:51;20.30;99.90
26262;DHT22;13988;52.446;13.280;2023-07-28T09:49:21;20.30;99.90
26262;DHT22;13988;52.446;13.280;2023-07-28T09:51:49;20.20;99.90
26262;DHT22;13988;52.446;13.280;2023-07-28T09:54:29;20.10;99.90
26262;DHT22;13988;52.446;13.280;2023-07-28T09:56:59;20.10;99.90
26262;DHT22;13988;52.446;13.280;2023-07-28T09:59:45;20.20;99.90
26262;DHT22;13988;52.446;13.280;2023-07-28T10:02:12;20.50;99.90
26262;DHT22;13988;52.446;13.280;2023-07-28T10:04:38;20.50;99.90
26262;DHT22;13988;52.446;13.280;2023-07-28T10:07:05;20.70;99.90
26262;DHT22;13988;52.446;13.280;2023-07-28T10:09:33;20.90;99.90
26262;DHT22;13988;52.446;13.280;2023-07-28T10:12:00;20.90;99.90
26262;DHT22;13988;52.446;13.280;2023-07-28T10:14:30;20.90;99.90
26262;DHT22;13988;52.446;13.280;2023-07-28T10:16:58;21.10;99.90
26262;DHT22;13988;52.446;13.280;2023-07-28T10:19:27;21.00;99.90
26262;DHT22;13988;52.446;13.280;2023-07-28T10:22:19;21.20;99.90
26262;DHT22;13988;52.446;13.280;2023-07-28T10:25:01;20.90;99.90
26262;DHT22;13988;52.446;13.280;2023-07-28T10:27:38;20.60;99.90
26262;DHT22;13988;52.446;13.280;2023-07-28T10:30:09;20.20;99.90
26262;DHT22;13988;52.446;13.280;2023-07-28T10:32:42;20.10;99.90
26262;DHT22;13988;52.446;13.280;2023-07-28T10:37:37;19.60;99.90
26262;DHT22;13988;52.446;13.280;2023-07-28T10:40:31;19.60;99.90
26262;DHT22;13988;52.446;13.280;2023-07-28T10:42:59;19.70;99.90
26262;DHT22;13988;52.446;13.280;2023-07-28T10:45:29;20.10;99.90
26262;DHT22;13988;52.446;13.280;2023-07-28T10:47:57;20.60;99.90
26262;DHT22;13988;52.446;13.280;2023-07-28T10:50:27;21.10;99.90
26262;DHT22;13988;52.446;13.280;2023-07-28T10:52:53;20.90;99.90
26262;DHT22;13988;52.446;13.280;2023-07-28T10:55:21;21.40;99.90
26262;DHT22;13988;52.446;13.280;2023-07-28T10:57:47;21.40;99.90
26262;DHT22;13988;52.446;13.280;2023-07-28T11:00:17;21.40;99.90
26262;DHT22;13988;52.446;13.280;2023-07-28T11:02:49;21.30;99.90
26262;DHT22;13988;52.446;13.280;2023-07-28T11:05:28;21.20;99.90
26262;DHT22;13988;52.446;13.280;2023-07-28T11:07:56;21.40;99.90
26262;DHT22;13988;52.446;13.280;2023-07-28T11:10:22;22.00;99.90
26262;DHT22;13988;52.446;13.280;2023-07-28T11:12:49;22.40;99.90
26262;DHT22;13988;52.446;13.280;2023-07-28T11:15:16;22.60;99.90
26262;DHT22;13988;52.446;13.280;2023-07-28T11:17:45;22.40;99.90
26262;DHT22;13988;52.446;13.280;2023-07-28T11:20:21;22.30;99.90
26262;DHT22;13988;52.446;13.280;2023-07-28T11:22:58;22.10;99.90
26262;DHT22;13988;52.446;13.280;2023-07-28T11:25:25;21.70;99.90
26262;DHT22;13988;52.446;13.280;2023-07-28T11:27:51;21.60;99.90
26262;DHT22;13988;52.446;13.280;2023-07-28T11:30:18;21.70;99.90
26262;DHT22;13988;52.446;13.280;2023-07-28T11:32:46;21.70;99.90
26262;DHT22;13988;52.446;13.280;2023-07-28T11:35:14;21.60;99.90
26262;DHT22;13988;52.446;13.280;2023-07-28T11:37:42;21.60;99.90
26262;DHT22;13988;52.446;13.280;2023-07-28T11:40:09;21.80;99.90
26262;DHT22;13988;52.446;13.280;2023-07-28T11:42:44;22.40;99.90
26262;DHT22;13988;52.446;13.280;2023-07-28T11:45:12;22.40;99.90
26262;DHT22;13988;52.446;13.280;2023-07-28T11:47:38;22.40;99.90
26262;DHT22;13988;52.446;13.280;2023-07-28T11:50:04;22.50;99.90
26262;DHT22;13988;52.446;13.280;2023-07-28T11:52:34;22.60;99.90
26262;DHT22;13988;52.446;13.280;2023-07-28T11:55:04;22.40;99.90
26262;DHT22;13988;52.446;13.280;2023-07-28T11:57:31;21.80;99.90
26262;DHT22;13988;52.446;13.280;2023-07-28T11:59:57;21.80;99.90
26262;DHT22;13988;52.446;13.280;2023-07-28T12:02:29;21.80;99.90
26262;DHT22;13988;52.446;13.280;2023-07-28T12:04:56;22.50;99.90
26262;DHT22;13988;52.446;13.280;2023-07-28T12:07:31;22.50;99.90
26262;DHT22;13988;52.446;13.280;2023-07-28T12:09:59;22.20;99.90
26262;DHT22;13988;52.446;13.280;2023-07-28T12:12:29;21.70;99.90
26262;DHT22;13988;52.446;13.280;2023-07-28T12:14:56;21.60;99.90
26262;DHT22;13988;52.446;13.280;2023-07-28T12:17:25;22.50;99.90
26262;DHT22;13988;52.446;13.280;2023-07-28T12:20:06;23.50;99.90
26262;DHT22;13988;52.446;13.280;2023-07-28T12:22:37;23.10;99.90
26262;DHT22;13988;52.446;13.280;2023-07-28T12:25:04;23.00;99.90
26262;DHT22;13988;52.446;13.280;2023-07-28T12:27:30;22.50;99.90
26262;DHT22;13988;52.446;13.280;2023-07-28T12:29:55;22.00;99.90
26262;DHT22;13988;52.446;13.280;2023-07-28T12:32:21;21.80;99.90
26262;DHT22;13988;52.446;13.280;2023-07-28T12:34:49;21.60;99.90
26262;DHT22;13988;52.446;13.280;2023-07-28T12:37:15;21.40;99.90
26262;DHT22;13988;52.446;13.280;2023-07-28T12:39:41;20.90;99.90
26262;DHT22;13988;52.446;13.280;2023-07-28T12:42:08;20.80;99.90
26262;DHT22;13988;52.446;13.280;2023-07-28T12:44:35;20.60;99.90
26262;DHT22;13988;52.446;13.280;2023-07-28T12:47:01;20.70;99.90
26262;DHT22;13988;52.446;13.280;2023-07-28T12:49:27;20.80;99.90
26262;DHT22;13988;52.446;13.280;2023-07-28T12:51:55;21.10;99.90
26262;DHT22;13988;52.446;13.280;2023-07-28T12:54:22;21.40;99.90
26262;DHT22;13988;52.446;13.280;2023-07-28T12:56:47;21.60;99.90
26262;DHT22;13988;52.446;13.280;2023-07-28T12:59:14;21.40;99.90
26262;DHT22;13988;52.446;13.280;2023-07-28T13:01:40;21.30;99.90
26262;DHT22;13988;52.446;13.280;2023-07-28T13:04:06;21.40;99.90
26262;DHT22;13988;52.446;13.280;2023-07-28T13:06:32;21.60;99.90
26262;DHT22;13988;52.446;13.280;2023-07-28T13:08:57;21.60;99.90
26262;DHT22;13988;52.446;13.280;2023-07-28T13:11:23;21.40;99.90
26262;DHT22;13988;52.446;13.280;2023-07-28T13:13:49;21.40;99.90
26262;DHT22;13988;52.446;13.280;2023-07-28T13:16:14;21.40;99.90
26262;DHT22;13988;52.446;13.280;2023-07-28T13:18:41;21.70;99.90
26262;DHT22;13988;52.446;13.280;2023-07-28T13:21:07;21.90;99.90
26262;DHT22;13988;52.446;13.280;2023-07-28T13:23:33;21.70;99.90
26262;DHT22;13988;52.446;13.280;2023-07-28T13:25:58;22.00;99.90
26262;DHT22;13988;52.446;13.280;2023-07-28T13:28:24;22.40;99.90
26262;DHT22;13988;52.446;13.280;2023-07-28T13:30:51;22.10;99.90
26262;DHT22;13988;52.446;13.280;2023-07-28T13:33:17;21.90;99.90
26262;DHT22;13988;52.446;13.280;2023-07-28T13:35:42;21.70;99.90
26262;DHT22;13988;52.446;13.280;2023-07-28T13:38:08;22.00;99.90
26262;DHT22;13988;52.446;13.280;2023-07-28T13:40:35;21.90;99.90
26262;DHT22;13988;52.446;13.280;2023-07-28T13:43:00;21.40;99.90
26262;DHT22;13988;52.446;13.280;2023-07-28T13:45:26;21.30;99.90
26262;DHT22;13988;52.446;13.280;2023-07-28T13:47:52;21.20;99.90
26262;DHT22;13988;52.446;13.280;2023-07-28T13:50:18;21.20;99.90
26262;DHT22;13988;52.446;13.280;2023-07-28T13:52:44;21.20;99.90
26262;DHT22;13988;52.446;13.280;2023-07-28T13:55:09;21.10;99.90
26262;DHT22;13988;52.446;13.280;2023-07-28T14:01:00;21.10;99.90
26262;DHT22;13988;52.446;13.280;2023-07-28T14:03:25;21.10;99.90
26262;DHT22;13988;52.446;13.280;2023-07-28T14:05:51;21.10;99.90
26262;DHT22;13988;52.446;13.280;2023-07-28T14:08:17;21.00;99.90
26262;DHT22;13988;52.446;13.280;2023-07-28T14:10:46;21.50;99.90
26262;DHT22;13988;52.446;13.280;2023-07-28T14:13:12;21.80;99.90
26262;DHT22;13988;52.446;13.280;2023-07-28T14:15:38;22.50;99.90
26262;DHT22;13988;52.446;13.280;2023-07-28T14:18:04;22.70;99.90
26262;DHT22;13988;52.446;13.280;2023-07-28T14:20:30;22.80;99.90
26262;DHT22;13988;52.446;13.280;2023-07-28T14:22:59;23.10;99.90
26262;DHT22;13988;52.446;13.280;2023-07-28T14:25:24;23.10;99.90
26262;DHT22;13988;52.446;13.280;2023-07-28T14:27:50;22.90;99.90
26262;DHT22;13988;52.446;13.280;2023-07-28T14:30:15;22.40;99.90
26262;DHT22;13988;52.446;13.280;2023-07-28T14:32:41;22.10;99.90
26262;DHT22;13988;52.446;13.280;2023-07-28T14:35:07;21.90;99.90
26262;DHT22;13988;52.446;13.280;2023-07-28T14:37:33;21.90;99.90
26262;DHT22;13988;52.446;13.280;2023-07-28T14:39:58;21.70;99.90
26262;DHT22;13988;52.446;13.280;2023-07-28T14:42:24;22.00;99.90
26262;DHT22;13988;52.446;13.280;2023-07-28T14:44:50;22.20;99.90
26262;DHT22;13988;52.446;13.280;2023-07-28T14:47:15;22.60;99.90
26262;DHT22;13988;52.446;13.280;2023-07-28T14:49:41;22.70;99.90
26262;DHT22;13988;52.446;13.280;2023-07-28T14:52:07;22.20;99.90
26262;DHT22;13988;52.446;13.280;2023-07-28T14:54:33;22.00;99.90
26262;DHT22;13988;52.446;13.280;2023-07-28T14:56:58;21.70;99.90
26262;DHT22;13988;52.446;13.280;2023-07-28T14:59:24;21.60;99.90
26262;DHT22;13988;52.446;13.280;2023-07-28T15:01:49;21.30;99.90
26262;DHT22;13988;52.446;13.280;2023-07-28T15:04:15;21.50;99.90
26262;DHT22;13988;52.446;13.280;2023-07-28T15:06:41;21.60;99.90
26262;DHT22;13988;52.446;13.280;2023-07-28T15:09:06;21.50;99.90
26262;DHT22;13988;52.446;13.280;2023-07-28T15:11:32;21.50;99.90
26262;DHT22;13988;52.446;13.280;2023-07-28T15:13:58;21.40;99.90
26262;DHT22;13988;52.446;13.280;2023-07-28T15:16:23;21.40;99.90
26262;DHT22;13988;52.446;13.280;2023-07-28T15:18:49;21.40;99.90
26262;DHT22;13988;52.446;13.280;2023-07-28T15:21:14;21.50;99.90